Unbenanntes Dokument
Flugplatz Bielefeld Platzwetter

 

Aktuelles Platzwetter am Flugplatz Bielefeld EDLI

19.07.18 ,03:36 Uhr

METAR EDLI 190335Z 09002KT 9999 13/09 Q1020

 

Windwerte

 

Wolkenuntergrenzen

Wind aktuell:080 ° mit 3 kt
Wind 10 min Extrem:
30 ° bis 140 ° mit 1 kt bis 4 kt
Seitenwindkomponente: -1.9 kt
Wolkengrenze 1:
Wolkengrenze 2:
Wolkengrenze 3:

Webcam

Temperatur

       

Sichtweite:

20.000 Meter

13.4 °C
Taupunkt: 9.4 °C
Luftfeuchtigkeit: 76 %

Luftdruck:

QNH: 1020 hPa (30.12 in Hg)
QFE: 1003 hPa (29.62 in Hg)

Diese Daten werden automatisch ermittelt bzw. übertragen und sind nicht geprüft. Für die Richtigkeit wird daher keine Gewähr übernommen. Sie ersetzen im übrigen nicht die Flugwetterberatung. Alle Zeitangaben beziehen sich auf UTC. Die Seite wird einmal die Minute aktualisiert! Sollten Sie ein ältere Seite haben, so drücken Sie bitte auf den Reload Button Ihres Browsers!